createdAt,value
2019-05-26T00:00:37.474Z,71.41
2019-05-26T00:03:07.165Z,71.41
2019-05-26T00:05:36.192Z,71.53
2019-05-26T00:08:05.372Z,71.95
2019-05-26T00:10:34.542Z,73.16
2019-05-26T00:13:03.906Z,72.66
2019-05-26T00:15:33.341Z,73.70
2019-05-26T00:18:02.552Z,73.99
2019-05-26T00:20:31.750Z,74.15
2019-05-26T00:23:01.034Z,74.68
2019-05-26T00:25:30.867Z,74.64
2019-05-26T00:28:00.205Z,74.63
2019-05-26T00:30:29.505Z,75.27
2019-05-26T00:32:58.668Z,75.11
2019-05-26T00:35:27.941Z,75.29
2019-05-26T00:37:58.526Z,75.11
2019-05-26T00:40:27.780Z,75.27
2019-05-26T00:42:57.471Z,75.61
2019-05-26T00:45:26.730Z,75.91
2019-05-26T00:47:55.910Z,75.88
2019-05-26T00:50:24.969Z,75.90
2019-05-26T00:52:56.763Z,75.68
2019-05-26T00:55:25.206Z,75.76
2019-05-26T00:57:54.598Z,75.98
2019-05-26T01:00:42.913Z,75.47
2019-05-26T01:03:12.567Z,75.74
2019-05-26T01:05:41.695Z,75.62
2019-05-26T01:08:11.259Z,75.95
2019-05-26T01:10:40.733Z,75.67
2019-05-26T01:13:09.968Z,75.90
2019-05-26T01:15:39.274Z,76.04
2019-05-26T01:18:08.573Z,76.25
2019-05-26T01:20:37.759Z,76.24
2019-05-26T01:23:06.910Z,76.19
2019-05-26T01:25:36.101Z,76.28
2019-05-26T01:28:05.524Z,76.37
2019-05-26T01:30:36.405Z,76.61
2019-05-26T01:33:05.636Z,76.85
2019-05-26T01:35:35.147Z,77.25
2019-05-26T01:38:04.633Z,77.35
2019-05-26T01:40:52.691Z,77.75
2019-05-26T01:43:21.947Z,78.05
2019-05-26T01:45:51.270Z,78.33
2019-05-26T01:48:20.282Z,78.80
2019-05-26T01:50:49.193Z,79.13
2019-05-26T01:53:18.373Z,79.57
2019-05-26T01:55:47.491Z,79.53
2019-05-26T01:58:16.693Z,79.80
2019-05-26T02:00:45.652Z,79.58
2019-05-26T02:03:14.738Z,79.64
2019-05-26T02:05:43.985Z,79.47
2019-05-26T02:08:13.220Z,79.15
2019-05-26T02:10:42.227Z,78.73
2019-05-26T02:13:11.507Z,78.25
2019-05-26T02:15:41.907Z,77.61
2019-05-26T02:18:11.287Z,77.04
2019-05-26T02:20:40.371Z,76.57
2019-05-26T02:23:09.594Z,76.08
2019-05-26T02:25:38.608Z,75.62
2019-05-26T02:28:07.768Z,75.20
2019-05-26T02:30:36.864Z,75.06
2019-05-26T02:33:06.106Z,74.74
2019-05-26T02:35:35.269Z,73.87
2019-05-26T02:38:04.719Z,72.65
2019-05-26T02:40:33.946Z,71.70
2019-05-26T02:43:03.403Z,71.46
2019-05-26T02:45:32.852Z,71.02
2019-05-26T02:48:01.777Z,71.12
2019-05-26T02:50:30.845Z,71.15
2019-05-26T02:53:00.107Z,71.00
2019-05-26T02:55:29.459Z,71.29
2019-05-26T02:57:59.033Z,70.67
2019-05-26T03:00:44.650Z,71.12
2019-05-26T03:03:15.274Z,71.61
2019-05-26T03:05:45.915Z,71.90
2019-05-26T03:08:15.494Z,71.53
2019-05-26T03:10:45.156Z,71.12
2019-05-26T03:13:17.975Z,70.57
2019-05-26T03:15:48.346Z,70.50
2019-05-26T03:18:21.489Z,69.31
2019-05-26T03:20:50.876Z,68.79
2019-05-26T03:23:19.870Z,67.93
2019-05-26T03:25:49.885Z,68.18
2019-05-26T03:28:19.014Z,68.00
2019-05-26T03:30:48.125Z,67.61
2019-05-26T03:33:18.258Z,67.41
2019-05-26T03:35:47.383Z,66.72
2019-05-26T03:38:16.783Z,66.51
2019-05-26T03:40:45.948Z,66.51
2019-05-26T03:43:15.291Z,66.80
2019-05-26T03:46:22.449Z,66.43
2019-05-26T03:48:51.392Z,66.51
2019-05-26T03:51:22.507Z,66.68
2019-05-26T03:53:51.627Z,67.13
2019-05-26T03:56:20.569Z,66.78
2019-05-26T03:58:50.296Z,66.79
2019-05-26T04:01:19.283Z,66.90
2019-05-26T04:03:48.571Z,66.58
2019-05-26T04:06:17.826Z,66.43
2019-05-26T04:08:47.597Z,66.26
2019-05-26T04:11:16.658Z,66.57
2019-05-26T04:13:46.242Z,67.07
2019-05-26T04:16:15.487Z,67.40
2019-05-26T04:18:44.940Z,67.45
2019-05-26T04:21:14.392Z,67.30
2019-05-26T04:23:46.085Z,67.08
2019-05-26T04:26:15.300Z,67.32
2019-05-26T04:28:44.316Z,66.86
2019-05-26T04:31:13.436Z,66.51
2019-05-26T04:33:42.557Z,66.16
2019-05-26T04:36:11.947Z,65.51
2019-05-26T04:38:41.803Z,64.86
2019-05-26T04:41:12.196Z,64.01
2019-05-26T04:43:41.145Z,63.32
2019-05-26T04:46:10.493Z,63.38
2019-05-26T04:48:40.049Z,63.53
2019-05-26T04:51:09.223Z,63.75
2019-05-26T04:53:38.450Z,63.80
2019-05-26T04:56:07.393Z,63.23
2019-05-26T04:58:36.703Z,63.14
2019-05-26T05:01:05.853Z,63.14
2019-05-26T05:03:37.614Z,62.87
2019-05-26T05:06:06.868Z,61.40
2019-05-26T05:08:36.089Z,60.89
2019-05-26T05:11:05.820Z,60.37
2019-05-26T05:13:35.539Z,59.93
2019-05-26T05:16:05.034Z,59.43
2019-05-26T05:18:34.129Z,59.92
2019-05-26T05:21:03.303Z,60.34
2019-05-26T05:23:32.580Z,60.04
2019-05-26T05:26:01.766Z,59.54
2019-05-26T05:28:31.025Z,59.28
2019-05-26T05:31:00.152Z,58.73
2019-05-26T05:33:29.563Z,58.01
2019-05-26T05:35:58.902Z,57.49
2019-05-26T05:38:30.105Z,57.90
2019-05-26T05:41:00.852Z,57.68
2019-05-26T05:43:31.538Z,57.60
2019-05-26T05:46:01.569Z,56.89
2019-05-26T05:48:30.752Z,56.65
2019-05-26T05:51:00.883Z,56.76
2019-05-26T05:53:32.130Z,56.97
2019-05-26T05:56:01.280Z,56.47
2019-05-26T05:58:30.389Z,56.50
2019-05-26T06:00:59.992Z,56.87
2019-05-26T06:03:29.202Z,56.94
2019-05-26T06:05:58.326Z,57.04
2019-05-26T06:08:27.672Z,57.26
2019-05-26T06:11:15.009Z,57.49
2019-05-26T06:13:30.104Z,57.19
2019-05-26T06:15:59.161Z,58.02
2019-05-26T06:18:28.645Z,58.71
2019-05-26T06:20:58.036Z,59.36
2019-05-26T06:23:27.648Z,59.75
2019-05-26T06:26:00.276Z,60.75
2019-05-26T06:28:29.852Z,61.55
2019-05-26T06:31:00.966Z,62.20
2019-05-26T06:33:30.922Z,62.76
2019-05-26T06:36:00.120Z,63.21
2019-05-26T06:38:29.777Z,63.31
2019-05-26T06:41:01.084Z,63.24
2019-05-26T06:43:30.892Z,63.18
2019-05-26T06:46:00.342Z,63.20
2019-05-26T06:48:32.747Z,62.90
2019-05-26T06:51:02.136Z,62.90
2019-05-26T06:53:31.562Z,62.72
2019-05-26T06:56:02.398Z,62.64
2019-05-26T06:58:34.600Z,63.11
2019-05-26T07:01:03.746Z,62.80
2019-05-26T07:03:32.925Z,62.97
2019-05-26T07:06:05.697Z,63.51
2019-05-26T07:08:35.174Z,64.15
2019-05-26T07:11:06.179Z,63.52
2019-05-26T07:13:36.600Z,63.01
2019-05-26T07:16:08.463Z,62.19
2019-05-26T07:18:39.916Z,62.42
2019-05-26T07:21:09.364Z,61.95
2019-05-26T07:23:38.871Z,61.27
2019-05-26T07:26:08.480Z,60.77
2019-05-26T07:28:38.539Z,60.28
2019-05-26T07:31:07.985Z,60.99
2019-05-26T07:33:37.650Z,61.14
2019-05-26T07:36:06.969Z,61.00
2019-05-26T07:38:36.171Z,60.48
2019-05-26T07:41:07.239Z,60.49
2019-05-26T07:43:36.459Z,60.24
2019-05-26T07:46:14.908Z,60.05
2019-05-26T07:48:44.233Z,59.03
2019-05-26T07:51:13.810Z,58.38
2019-05-26T07:53:43.064Z,57.23
2019-05-26T07:56:12.335Z,56.15
2019-05-26T07:58:41.728Z,55.87
2019-05-26T08:01:11.242Z,54.93
2019-05-26T08:03:40.491Z,55.55
2019-05-26T08:06:11.686Z,54.61
2019-05-26T08:08:41.366Z,53.68
2019-05-26T08:11:10.889Z,53.71
2019-05-26T08:13:41.952Z,54.31
2019-05-26T08:16:10.973Z,53.30
2019-05-26T08:18:40.103Z,53.84
2019-05-26T08:21:09.165Z,53.96
2019-05-26T08:23:38.755Z,52.91
2019-05-26T08:26:07.962Z,51.74
2019-05-26T08:28:37.216Z,51.52
2019-05-26T08:31:06.485Z,49.89
2019-05-26T08:33:36.214Z,48.63
2019-05-26T08:36:05.793Z,47.44
2019-05-26T08:38:34.944Z,48.81
2019-05-26T08:41:04.963Z,49.35
2019-05-26T08:43:34.711Z,48.34
2019-05-26T08:46:04.778Z,47.48
2019-05-26T08:48:34.437Z,47.38
2019-05-26T08:51:04.712Z,46.21
2019-05-26T08:53:34.095Z,45.75
2019-05-26T08:56:03.873Z,45.71
2019-05-26T08:58:33.639Z,44.06
2019-05-26T09:01:03.227Z,43.00
2019-05-26T09:03:32.709Z,42.91
2019-05-26T09:06:02.712Z,42.71
2019-05-26T09:08:32.033Z,40.97
2019-05-26T09:11:01.762Z,39.74
2019-05-26T09:13:31.355Z,39.64
2019-05-26T09:16:01.954Z,39.69
2019-05-26T09:18:31.893Z,38.94
2019-05-26T09:21:01.152Z,39.21
2019-05-26T09:23:30.489Z,39.63
2019-05-26T09:26:00.348Z,38.08
2019-05-26T09:28:33.750Z,38.45
2019-05-26T09:31:06.121Z,35.94
2019-05-26T09:33:35.752Z,35.87
2019-05-26T09:36:05.574Z,35.04
2019-05-26T09:38:35.853Z,34.96
2019-05-26T09:41:05.703Z,33.71
2019-05-26T09:43:39.142Z,33.54
2019-05-26T09:46:11.659Z,33.49
2019-05-26T09:48:41.258Z,32.01
2019-05-26T09:51:10.591Z,31.75
2019-05-26T09:53:39.645Z,31.87
2019-05-26T09:56:08.949Z,31.90
2019-05-26T09:58:38.295Z,31.97
2019-05-26T10:01:07.355Z,32.47
2019-05-26T10:03:36.856Z,32.64
2019-05-26T10:06:06.370Z,32.96
2019-05-26T10:08:38.633Z,33.55
2019-05-26T10:11:10.034Z,34.08
2019-05-26T10:13:39.225Z,33.54
2019-05-26T10:16:08.776Z,33.14
2019-05-26T10:18:39.674Z,33.63
2019-05-26T10:21:11.580Z,34.47
2019-05-26T10:23:46.900Z,35.39
2019-05-26T10:26:17.565Z,34.81
2019-05-26T10:28:46.862Z,34.64
2019-05-26T10:31:16.422Z,33.89
2019-05-26T10:33:45.655Z,34.39
2019-05-26T10:36:15.057Z,34.99
2019-05-26T10:38:44.318Z,35.46
2019-05-26T10:41:13.544Z,35.55
2019-05-26T10:43:47.132Z,35.78
2019-05-26T10:46:13.702Z,35.55
2019-05-26T10:48:42.887Z,35.09
2019-05-26T10:51:11.729Z,36.01
2019-05-26T10:53:40.532Z,36.40
2019-05-26T10:56:09.781Z,34.54
2019-05-26T10:58:39.136Z,35.45
2019-05-26T11:01:08.076Z,34.69
2019-05-26T11:03:37.445Z,35.74
2019-05-26T11:06:06.716Z,33.23
2019-05-26T11:08:36.221Z,32.46
2019-05-26T11:11:05.242Z,32.01
2019-05-26T11:13:34.400Z,32.21
2019-05-26T11:16:03.683Z,32.30
2019-05-26T11:18:32.783Z,30.79
2019-05-26T11:21:01.841Z,28.04
2019-05-26T11:23:30.997Z,26.66
2019-05-26T11:26:00.348Z,23.37
2019-05-26T11:28:29.878Z,21.99
2019-05-26T11:30:58.994Z,21.85
2019-05-26T11:33:28.172Z,23.10
2019-05-26T11:35:57.536Z,24.12
2019-05-26T11:38:33.449Z,25.02
2019-05-26T11:41:02.896Z,24.40
2019-05-26T11:43:31.982Z,23.91
2019-05-26T11:46:01.373Z,21.93
2019-05-26T11:48:30.559Z,19.40
2019-05-26T11:50:59.989Z,18.10
2019-05-26T11:53:29.227Z,16.77
2019-05-26T11:55:58.623Z,15.85
2019-05-26T11:58:27.764Z,14.80
2019-05-26T12:00:56.630Z,15.61
2019-05-26T12:03:25.570Z,17.12
2019-05-26T12:05:54.770Z,19.23
2019-05-26T12:08:23.873Z,22.15
2019-05-26T12:10:52.828Z,22.20
2019-05-26T12:13:21.898Z,23.72
2019-05-26T12:15:51.226Z,24.04
2019-05-26T12:18:20.973Z,25.65
2019-05-26T12:20:50.194Z,26.64
2019-05-26T12:23:19.278Z,27.85
2019-05-26T12:25:48.646Z,28.34
2019-05-26T12:28:17.892Z,29.01
2019-05-26T12:30:47.191Z,28.86
2019-05-26T12:33:16.496Z,27.27
2019-05-26T12:35:47.156Z,22.92
2019-05-26T12:38:18.818Z,19.13
2019-05-26T12:40:47.793Z,16.37
2019-05-26T12:43:17.210Z,15.08
2019-05-26T12:45:45.990Z,16.35
2019-05-26T12:48:15.124Z,18.20
2019-05-26T12:50:44.521Z,20.50
2019-05-26T12:53:13.534Z,22.14
2019-05-26T12:55:43.180Z,24.02
2019-05-26T12:58:12.328Z,25.42
2019-05-26T13:00:48.740Z,27.25
2019-05-26T13:03:12.433Z,28.96
2019-05-26T13:05:41.974Z,30.32
2019-05-26T13:08:11.323Z,31.58
2019-05-26T13:10:40.596Z,32.23
2019-05-26T13:13:09.887Z,32.34
2019-05-26T13:15:39.116Z,33.04
2019-05-26T13:18:09.539Z,33.27
2019-05-26T13:20:39.464Z,33.25
2019-05-26T13:23:10.370Z,32.51
2019-05-26T13:25:40.256Z,29.36
2019-05-26T13:28:09.472Z,25.45
2019-05-26T13:30:39.124Z,22.07
2019-05-26T13:33:10.793Z,19.33
2019-05-26T13:35:40.345Z,17.63
2019-05-26T13:38:09.855Z,17.70
2019-05-26T13:40:38.977Z,17.21
2019-05-26T13:43:08.161Z,17.22
2019-05-26T13:45:37.022Z,16.81
2019-05-26T13:48:06.126Z,16.10
2019-05-26T13:50:35.006Z,15.51
2019-05-26T13:53:04.207Z,15.02
2019-05-26T13:55:33.172Z,15.17
2019-05-26T13:58:02.991Z,15.11
2019-05-26T14:00:31.957Z,15.96
2019-05-26T14:03:01.134Z,15.41
2019-05-26T14:05:30.187Z,14.83
2019-05-26T14:07:59.284Z,14.30
2019-05-26T14:10:35.822Z,14.82
2019-05-26T14:13:05.153Z,14.54
2019-05-26T14:15:38.799Z,15.49
2019-05-26T14:18:05.819Z,16.97
2019-05-26T14:20:37.105Z,16.69
2019-05-26T14:23:07.068Z,16.70
2019-05-26T14:25:37.581Z,18.29
2019-05-26T14:28:07.425Z,19.96
2019-05-26T14:30:36.715Z,21.06
2019-05-26T14:33:07.007Z,19.47
2019-05-26T14:35:36.104Z,17.80
2019-05-26T14:38:05.374Z,17.43
2019-05-26T14:40:34.701Z,18.77
2019-05-26T14:43:03.747Z,17.90
2019-05-26T14:45:32.502Z,16.70
2019-05-26T14:48:01.710Z,15.81
2019-05-26T14:50:30.637Z,15.28
2019-05-26T14:53:00.289Z,14.56
2019-05-26T14:55:29.089Z,14.30
2019-05-26T14:58:12.356Z,14.32
2019-05-26T15:00:29.565Z,14.22
2019-05-26T15:02:58.504Z,14.45
2019-05-26T15:05:27.414Z,14.43
2019-05-26T15:07:56.364Z,14.26
2019-05-26T15:10:27.835Z,14.13
2019-05-26T15:12:57.217Z,14.33
2019-05-26T15:15:25.923Z,13.94
2019-05-26T15:17:55.027Z,14.23
2019-05-26T15:20:24.273Z,14.29
2019-05-26T15:22:54.465Z,14.32
2019-05-26T15:25:23.464Z,14.42
2019-05-26T15:27:54.518Z,15.60
2019-05-26T15:30:26.309Z,17.97
2019-05-26T15:32:55.839Z,20.58
2019-05-26T15:35:24.864Z,23.03
2019-05-26T15:37:55.831Z,24.98
2019-05-26T15:40:25.598Z,26.82
2019-05-26T15:42:54.718Z,27.90
2019-05-26T15:45:24.759Z,29.12
2019-05-26T15:47:53.551Z,29.90
2019-05-26T15:50:22.908Z,30.80
2019-05-26T15:52:51.928Z,32.34
2019-05-26T15:55:20.840Z,32.52
2019-05-26T15:57:49.724Z,33.33
2019-05-26T16:00:20.990Z,33.37
2019-05-26T16:02:50.389Z,33.72
2019-05-26T16:05:19.947Z,33.42
2019-05-26T16:07:49.016Z,34.01
2019-05-26T16:10:20.931Z,36.64
2019-05-26T16:12:51.758Z,34.66
2019-05-26T16:15:21.554Z,35.31
2019-05-26T16:17:50.949Z,35.15
2019-05-26T16:20:20.647Z,35.44
2019-05-26T16:22:50.015Z,35.49
2019-05-26T16:25:19.321Z,35.68
2019-05-26T16:27:48.728Z,35.70
2019-05-26T16:30:18.033Z,35.89
2019-05-26T16:32:47.546Z,35.75
2019-05-26T16:35:19.465Z,35.55
2019-05-26T16:37:48.607Z,35.03
2019-05-26T16:40:18.721Z,35.39
2019-05-26T16:42:48.293Z,35.81
2019-05-26T16:45:17.942Z,36.46
2019-05-26T16:47:47.313Z,36.62
2019-05-26T16:50:17.065Z,36.78
2019-05-26T16:52:46.732Z,36.60
2019-05-26T16:55:17.656Z,36.99
2019-05-26T16:57:47.341Z,37.38
2019-05-26T17:00:19.754Z,36.97
2019-05-26T17:02:52.237Z,38.24
2019-05-26T17:05:22.060Z,38.61
2019-05-26T17:07:51.315Z,37.27
2019-05-26T17:10:21.759Z,36.93
2019-05-26T17:12:51.587Z,37.24
2019-05-26T17:15:21.366Z,37.75
2019-05-26T17:17:50.548Z,37.87
2019-05-26T17:20:19.958Z,38.13
2019-05-26T17:22:49.007Z,37.98
2019-05-26T17:25:18.364Z,39.16
2019-05-26T17:27:49.133Z,38.65
2019-05-26T17:30:22.218Z,38.57
2019-05-26T17:32:51.203Z,38.74
2019-05-26T17:35:20.546Z,38.93
2019-05-26T17:37:50.108Z,39.28
2019-05-26T17:40:22.458Z,39.52
2019-05-26T17:42:52.167Z,40.02
2019-05-26T17:45:21.906Z,40.26
2019-05-26T17:47:51.219Z,40.07
2019-05-26T17:50:20.790Z,40.88
2019-05-26T17:52:50.094Z,42.02
2019-05-26T17:55:19.762Z,41.19
2019-05-26T17:57:48.963Z,40.87
2019-05-26T18:00:19.260Z,40.84
2019-05-26T18:02:48.790Z,41.35
2019-05-26T18:05:18.532Z,41.46
2019-05-26T18:07:48.035Z,42.07
2019-05-26T18:10:22.444Z,42.49
2019-05-26T18:12:50.536Z,42.47
2019-05-26T18:15:19.831Z,42.65
2019-05-26T18:17:50.342Z,43.23
2019-05-26T18:20:19.760Z,43.61
2019-05-26T18:22:53.929Z,44.05
2019-05-26T18:25:27.383Z,43.93
2019-05-26T18:27:56.999Z,44.11
2019-05-26T18:30:28.592Z,44.09
2019-05-26T18:32:58.441Z,44.30
2019-05-26T18:35:28.061Z,44.69
2019-05-26T18:38:00.341Z,45.29
2019-05-26T18:40:29.944Z,45.31
2019-05-26T18:43:02.591Z,46.16
2019-05-26T18:45:32.994Z,45.98
2019-05-26T18:48:03.909Z,46.41
2019-05-26T18:50:34.505Z,46.36
2019-05-26T18:53:04.066Z,46.49
2019-05-26T18:55:33.611Z,47.05
2019-05-26T18:58:03.322Z,47.18
2019-05-26T19:00:32.592Z,47.13
2019-05-26T19:03:04.503Z,47.79
2019-05-26T19:05:38.470Z,47.71
2019-05-26T19:08:09.853Z,47.76
2019-05-26T19:10:41.715Z,48.73
2019-05-26T19:13:10.867Z,48.32
2019-05-26T19:15:40.332Z,48.32
2019-05-26T19:18:20.011Z,48.56
2019-05-26T19:20:43.609Z,48.68
2019-05-26T19:23:13.765Z,49.05
2019-05-26T19:25:42.941Z,49.22
2019-05-26T19:28:11.947Z,50.02
2019-05-26T19:30:41.304Z,49.60
2019-05-26T19:33:10.695Z,49.83
2019-05-26T19:35:41.549Z,50.43
2019-05-26T19:38:14.333Z,50.22
2019-05-26T19:40:43.639Z,50.45
2019-05-26T19:43:12.917Z,50.76
2019-05-26T19:45:42.280Z,50.62
2019-05-26T19:48:11.502Z,50.68
2019-05-26T19:50:40.863Z,50.59
2019-05-26T19:53:09.957Z,51.78
2019-05-26T19:55:42.381Z,50.88
2019-05-26T19:58:12.629Z,50.98
2019-05-26T20:00:41.658Z,50.96
2019-05-26T20:03:11.050Z,51.01
2019-05-26T20:05:40.495Z,50.94
2019-05-26T20:08:09.703Z,51.07
2019-05-26T20:10:38.869Z,51.22
2019-05-26T20:13:08.255Z,50.92
2019-05-26T20:15:39.315Z,50.94
2019-05-26T20:18:08.689Z,50.62
2019-05-26T20:20:38.382Z,51.08
2019-05-26T20:23:07.617Z,50.47
2019-05-26T20:25:37.845Z,50.15
2019-05-26T20:28:07.223Z,50.01
2019-05-26T20:30:39.635Z,50.32
2019-05-26T20:33:08.796Z,49.95
2019-05-26T20:35:38.545Z,50.11
2019-05-26T20:38:10.845Z,49.57
2019-05-26T20:40:39.025Z,49.74
2019-05-26T20:43:08.181Z,49.56
2019-05-26T20:45:38.724Z,49.84
2019-05-26T20:48:07.961Z,49.77
2019-05-26T20:50:38.184Z,50.38
2019-05-26T20:53:07.751Z,49.87
2019-05-26T20:55:37.276Z,49.90
2019-05-26T20:58:14.131Z,50.09
2019-05-26T21:00:43.782Z,50.10
2019-05-26T21:03:15.965Z,50.06
2019-05-26T21:05:46.602Z,50.29
2019-05-26T21:08:16.183Z,50.27
2019-05-26T21:10:46.884Z,50.48
2019-05-26T21:13:16.429Z,50.52
2019-05-26T21:15:50.135Z,50.27
2019-05-26T21:18:19.743Z,50.48
2019-05-26T21:20:49.849Z,49.84
2019-05-26T21:23:22.811Z,49.76
2019-05-26T21:25:52.298Z,50.23
2019-05-26T21:28:21.689Z,50.10
2019-05-26T21:30:50.927Z,50.42
2019-05-26T21:33:21.466Z,50.64
2019-05-26T21:35:50.659Z,50.65
2019-05-26T21:38:20.054Z,50.89
2019-05-26T21:40:49.203Z,51.35
2019-05-26T21:43:18.437Z,51.02
2019-05-26T21:45:50.014Z,50.84
2019-05-26T21:48:21.125Z,50.79
2019-05-26T21:50:50.471Z,50.81
2019-05-26T21:53:20.058Z,51.42
2019-05-26T21:55:49.721Z,50.62
2019-05-26T21:58:18.873Z,50.51
2019-05-26T22:00:49.786Z,50.43
2019-05-26T22:03:23.953Z,50.57
2019-05-26T22:05:53.304Z,50.58
2019-05-26T22:08:23.093Z,50.72
2019-05-26T22:10:52.128Z,50.82
2019-05-26T22:13:21.851Z,50.97
2019-05-26T22:15:51.081Z,50.88
2019-05-26T22:18:21.320Z,51.10
2019-05-26T22:20:54.944Z,51.00
2019-05-26T22:23:25.816Z,51.50
2019-05-26T22:25:55.603Z,51.55
2019-05-26T22:28:24.717Z,51.50
2019-05-26T22:30:54.861Z,51.87
2019-05-26T22:33:24.217Z,52.31
2019-05-26T22:35:53.315Z,52.40
2019-05-26T22:38:22.376Z,52.52
2019-05-26T22:40:51.772Z,52.44
2019-05-26T22:43:20.765Z,52.17
2019-05-26T22:45:50.362Z,52.39
2019-05-26T22:48:19.673Z,52.24
2019-05-26T22:50:49.811Z,52.29
2019-05-26T22:53:19.212Z,52.03
2019-05-26T22:55:48.763Z,51.56
2019-05-26T22:58:20.186Z,54.20
2019-05-26T23:00:54.360Z,51.13
2019-05-26T23:03:23.444Z,50.54
2019-05-26T23:05:53.308Z,50.41
2019-05-26T23:08:23.510Z,50.26
2019-05-26T23:10:52.591Z,50.56
2019-05-26T23:13:21.718Z,51.13
2019-05-26T23:15:51.074Z,51.00
2019-05-26T23:18:20.309Z,51.37
2019-05-26T23:20:50.198Z,51.76
2019-05-26T23:23:19.262Z,51.80
2019-05-26T23:25:51.124Z,52.04
2019-05-26T23:28:20.707Z,51.36
2019-05-26T23:30:49.871Z,51.24
2019-05-26T23:33:18.971Z,50.87
2019-05-26T23:35:48.281Z,50.98
2019-05-26T23:38:17.462Z,50.88
2019-05-26T23:40:46.534Z,51.59
2019-05-26T23:43:15.763Z,50.82
2019-05-26T23:45:44.913Z,50.71
2019-05-26T23:48:14.083Z,51.13
2019-05-26T23:50:43.582Z,51.28
2019-05-26T23:53:12.761Z,50.74
2019-05-26T23:55:42.140Z,51.04
2019-05-26T23:58:11.331Z,51.22
